Time,TemperatureF,DewpointF,PressureIn,WindDirection,WindDirectionDegrees,WindSpeedMPH,WindSpeedGustMPH,Humidity,HourlyPrecipIn,Conditions,Clouds,dailyrainin,SoftwareType,DateUTC
2013-06-06 00:02:00,79.0,56.0,28.67,NE,49,0.0,3.0,45,0.00,,,0.00,,2013-06-06 04:02:00,
2013-06-06 00:13:00,79.0,56.0,28.67,NE,49,0.0,3.0,45,0.00,,,0.00,,2013-06-06 04:13:00,
2013-06-06 00:23:00,78.0,56.0,28.67,NE,47,0.0,2.0,47,0.00,,,0.00,,2013-06-06 04:23:00,
2013-06-06 00:33:00,76.0,55.0,28.68,NE,55,1.0,3.0,48,0.00,,,0.00,,2013-06-06 04:33:00,
2013-06-06 00:42:00,76.0,55.0,28.68,NE,55,1.0,3.0,48,0.00,,,0.00,,2013-06-06 04:42:00,
2013-06-06 00:52:00,75.0,55.0,28.69,NNW,338,0.0,5.0,50,0.00,,,0.00,,2013-06-06 04:52:00,
2013-06-06 01:02:00,74.0,55.0,28.69,NE,34,0.0,3.0,52,0.00,,,0.00,,2013-06-06 05:02:00,
2013-06-06 01:12:00,74.0,55.0,28.69,NE,34,0.0,3.0,52,0.00,,,0.00,,2013-06-06 05:12:00,
2013-06-06 01:22:00,73.0,55.0,28.70,NE,53,0.0,3.0,53,0.00,,,0.00,,2013-06-06 05:22:00,
2013-06-06 01:32:00,72.0,54.0,28.70,NNE,32,0.0,2.0,54,0.00,,,0.00,,2013-06-06 05:32:00,
2013-06-06 01:42:00,72.0,54.0,28.70,NNE,32,0.0,2.0,54,0.00,,,0.00,,2013-06-06 05:42:00,
2013-06-06 01:52:00,71.0,54.0,28.71,NE,36,0.0,1.0,55,0.00,,,0.00,,2013-06-06 05:52:00,
2013-06-06 02:02:00,70.0,54.0,28.71,NNE,23,0.0,2.0,56,0.00,,,0.00,,2013-06-06 06:02:00,
2013-06-06 02:12:00,70.0,54.0,28.71,NNE,23,0.0,2.0,56,0.00,,,0.00,,2013-06-06 06:12:00,
2013-06-06 02:22:00,69.0,54.0,28.71,ENE,66,0.0,2.0,58,0.00,,,0.00,,2013-06-06 06:22:00,
2013-06-06 02:32:00,68.0,53.0,28.71,NE,49,0.0,2.0,59,0.00,,,0.00,,2013-06-06 06:32:00,
2013-06-06 02:42:00,68.0,53.0,28.71,NE,49,0.0,2.0,59,0.00,,,0.00,,2013-06-06 06:42:00,
2013-06-06 02:52:00,68.0,53.0,28.71,NE,40,0.0,3.0,59,0.00,,,0.00,,2013-06-06 06:52:00,
2013-06-06 03:02:00,67.0,53.0,28.71,NNE,32,0.0,2.0,61,0.00,,,0.00,,2013-06-06 07:02:00,
2013-06-06 03:12:00,67.0,53.0,28.71,NNE,32,0.0,2.0,61,0.00,,,0.00,,2013-06-06 07:12:00,
2013-06-06 03:22:00,66.0,53.0,28.71,East,85,0.0,2.0,62,0.00,,,0.00,,2013-06-06 07:22:00,
2013-06-06 03:32:00,66.0,53.0,28.72,ENE,73,0.0,1.0,63,0.00,,,0.00,,2013-06-06 07:32:00,
2013-06-06 03:42:00,66.0,53.0,28.72,ENE,73,0.0,1.0,63,0.00,,,0.00,,2013-06-06 07:42:00,
2013-06-06 03:52:00,65.0,53.0,28.72,ENE,71,0.0,1.0,64,0.00,,,0.00,,2013-06-06 07:52:00,
2013-06-06 04:02:00,65.0,53.0,28.71,ENE,71,0.0,1.0,65,0.00,,,0.00,,2013-06-06 08:02:00,
2013-06-06 04:12:00,65.0,53.0,28.71,ENE,71,0.0,1.0,65,0.00,,,0.00,,2013-06-06 08:12:00,
2013-06-06 04:22:00,65.0,53.0,28.71,ENE,71,0.0,1.0,65,0.00,,,0.00,,2013-06-06 08:22:00,
2013-06-06 04:32:00,64.0,52.0,28.71,ENE,71,0.0,0.0,65,0.00,,,0.00,,2013-06-06 08:32:00,
2013-06-06 04:42:00,64.0,52.0,28.71,ENE,71,0.0,0.0,66,0.00,,,0.00,,2013-06-06 08:42:00,
2013-06-06 04:52:00,64.0,52.0,28.71,ENE,71,0.0,0.0,66,0.00,,,0.00,,2013-06-06 08:52:00,
2013-06-06 05:02:00,63.0,52.0,28.71,ENE,71,0.0,0.0,67,0.00,,,0.00,,2013-06-06 09:02:00,
2013-06-06 05:12:00,63.0,52.0,28.71,ENE,71,0.0,0.0,67,0.00,,,0.00,,2013-06-06 09:12:00,
2013-06-06 05:22:00,62.0,51.0,28.71,ENE,71,0.0,0.0,68,0.00,,,0.00,,2013-06-06 09:22:00,
2013-06-06 05:33:00,62.0,52.0,28.71,ENE,71,0.0,0.0,70,0.00,,,0.00,,2013-06-06 09:33:00,
2013-06-06 05:43:00,62.0,52.0,28.71,ENE,71,0.0,0.0,70,0.00,,,0.00,,2013-06-06 09:43:00,
2013-06-06 05:53:00,61.0,51.0,28.71,ENE,71,0.0,0.0,70,0.00,,,0.00,,2013-06-06 09:53:00,
2013-06-06 06:02:00,61.0,52.0,28.71,ENE,71,0.0,0.0,72,0.00,,,0.00,,2013-06-06 10:02:00,
2013-06-06 06:12:00,61.0,52.0,28.71,ENE,71,0.0,0.0,72,0.00,,,0.00,,2013-06-06 10:12:00,
2013-06-06 06:22:00,60.0,51.0,28.71,ENE,71,0.0,0.0,73,0.00,,,0.00,,2013-06-06 10:22:00,
2013-06-06 06:33:00,60.0,51.0,28.71,ENE,71,0.0,0.0,73,0.00,,,0.00,,2013-06-06 10:33:00,
2013-06-06 06:42:00,60.0,51.0,28.71,ENE,71,0.0,0.0,73,0.00,,,0.00,,2013-06-06 10:42:00,
2013-06-06 06:52:00,60.0,52.0,28.71,ENE,71,0.0,0.0,74,0.00,,,0.00,,2013-06-06 10:52:00,
2013-06-06 07:02:00,59.0,51.0,28.71,ENE,71,0.0,0.0,75,0.00,,,0.00,,2013-06-06 11:02:00,
2013-06-06 07:12:00,59.0,51.0,28.71,ENE,71,0.0,0.0,75,0.00,,,0.00,,2013-06-06 11:12:00,
2013-06-06 07:22:00,59.0,51.0,28.71,ENE,71,0.0,0.0,76,0.00,,,0.00,,2013-06-06 11:22:00,
2013-06-06 07:32:00,58.0,51.0,28.71,ENE,71,0.0,0.0,77,0.00,,,0.00,,2013-06-06 11:32:00,
2013-06-06 07:42:00,58.0,51.0,28.71,ENE,71,0.0,0.0,77,0.00,,,0.00,,2013-06-06 11:42:00,
2013-06-06 07:52:00,58.0,51.0,28.71,ENE,71,0.0,0.0,78,0.00,,,0.00,,2013-06-06 11:52:00,
2013-06-06 08:02:00,58.0,51.0,28.71,ENE,71,0.0,0.0,78,0.00,,,0.00,,2013-06-06 12:02:00,
2013-06-06 08:12:00,58.0,51.0,28.71,ENE,71,0.0,0.0,78,0.00,,,0.00,,2013-06-06 12:12:00,
2013-06-06 08:22:00,57.0,51.0,28.71,ENE,71,0.0,0.0,79,0.00,,,0.00,,2013-06-06 12:22:00,
2013-06-06 08:32:00,57.0,51.0,28.71,ENE,71,0.0,0.0,79,0.00,,,0.00,,2013-06-06 12:32:00,
2013-06-06 08:42:00,57.0,51.0,28.71,ENE,71,0.0,0.0,79,0.00,,,0.00,,2013-06-06 12:42:00,
2013-06-06 08:52:00,57.0,51.0,28.71,ENE,71,0.0,0.0,80,0.00,,,0.00,,2013-06-06 12:52:00,
2013-06-06 09:02:00,56.0,50.0,28.72,ENE,71,0.0,0.0,80,0.00,,,0.00,,2013-06-06 13:02:00,
2013-06-06 09:12:00,56.0,50.0,28.72,ENE,71,0.0,0.0,80,0.00,,,0.00,,2013-06-06 13:12:00,
2013-06-06 09:22:00,56.0,51.0,28.72,ENE,71,0.0,0.0,82,0.00,,,0.00,,2013-06-06 13:22:00,
2013-06-06 09:32:00,56.0,50.0,28.72,ENE,71,0.0,0.0,81,0.00,,,0.00,,2013-06-06 13:32:00,
2013-06-06 09:42:00,56.0,50.0,28.72,ENE,71,0.0,0.0,81,0.00,,,0.00,,2013-06-06 13:42:00,
2013-06-06 09:52:00,56.0,51.0,28.72,ENE,71,0.0,0.0,82,0.00,,,0.00,,2013-06-06 13:52:00,
2013-06-06 10:02:00,56.0,51.0,28.72,ENE,71,0.0,0.0,82,0.00,,,0.00,,2013-06-06 14:02:00,
2013-06-06 10:12:00,56.0,51.0,28.72,ENE,71,0.0,0.0,82,0.00,,,0.00,,2013-06-06 14:12:00,
2013-06-06 10:22:00,56.0,51.0,28.72,ENE,71,0.0,0.0,82,0.00,,,0.00,,2013-06-06 14:22:00,
2013-06-06 10:32:00,57.0,52.0,28.72,ENE,71,0.0,0.0,82,0.00,,,0.00,,2013-06-06 14:32:00,
2013-06-06 10:43:00,57.0,52.0,28.72,ENE,71,0.0,0.0,82,0.00,,,0.00,,2013-06-06 14:43:00,
2013-06-06 10:53:00,58.0,53.0,28.72,ENE,71,0.0,0.0,82,0.00,,,0.00,,2013-06-06 14:53:00,
2013-06-06 11:02:00,60.0,53.0,28.72,East,80,0.0,1.0,79,0.00,,,0.00,,2013-06-06 15:02:00,
2013-06-06 11:12:00,60.0,53.0,28.72,East,80,0.0,1.0,79,0.00,,,0.00,,2013-06-06 15:12:00,
2013-06-06 11:22:00,62.0,54.0,28.72,East,80,0.0,0.0,76,0.00,,,0.00,,2013-06-06 15:22:00,
2013-06-06 11:32:00,64.0,55.0,28.72,East,81,0.0,1.0,73,0.00,,,0.00,,2013-06-06 15:32:00,
2013-06-06 11:43:00,64.0,55.0,28.72,East,81,0.0,1.0,73,0.00,,,0.00,,2013-06-06 15:43:00,
2013-06-06 11:52:00,66.0,56.0,28.72,SE,138,0.0,1.0,70,0.00,,,0.00,,2013-06-06 15:52:00,
2013-06-06 12:03:00,68.0,56.0,28.72,SE,138,0.0,1.0,66,0.00,,,0.00,,2013-06-06 16:03:00,
2013-06-06 12:12:00,68.0,56.0,28.72,SE,138,0.0,1.0,66,0.00,,,0.00,,2013-06-06 16:12:00,
2013-06-06 12:22:00,70.0,57.0,28.72,SE,140,0.0,2.0,63,0.00,,,0.00,,2013-06-06 16:22:00,
2013-06-06 12:33:00,73.0,59.0,28.73,SSE,163,0.0,1.0,61,0.00,,,0.00,,2013-06-06 16:33:00,
2013-06-06 12:43:00,73.0,59.0,28.73,SSE,163,0.0,1.0,61,0.00,,,0.00,,2013-06-06 16:43:00,
2013-06-06 12:52:00,74.0,58.0,28.72,South,190,0.0,2.0,58,0.00,,,0.00,,2013-06-06 16:52:00,
2013-06-06 13:03:00,76.0,59.0,28.72,South,190,0.0,2.0,55,0.00,,,0.00,,2013-06-06 17:03:00,
2013-06-06 13:22:00,79.0,60.0,28.71,South,190,0.0,1.0,52,0.00,,,0.00,,2013-06-06 17:22:00,
2013-06-06 13:32:00,82.0,61.0,28.71,South,190,0.0,1.0,49,0.00,,,0.00,,2013-06-06 17:32:00,
2013-06-06 13:42:00,82.0,61.0,28.71,South,190,0.0,1.0,49,0.00,,,0.00,,2013-06-06 17:42:00,
2013-06-06 13:52:00,84.0,62.0,28.71,SSW,209,0.0,2.0,47,0.00,,,0.00,,2013-06-06 17:52:00,
2013-06-06 14:02:00,85.0,61.0,28.71,SW,220,0.0,2.0,44,0.00,,,0.00,,2013-06-06 18:02:00,
2013-06-06 14:22:00,86.0,61.0,28.71,SE,135,0.0,3.0,43,0.00,,,0.00,,2013-06-06 18:22:00,
2013-06-06 14:33:00,88.0,61.0,28.70,SE,135,1.0,3.0,40,0.00,,,0.00,,2013-06-06 18:33:00,
2013-06-06 14:43:00,88.0,61.0,28.70,SE,135,1.0,3.0,40,0.00,,,0.00,,2013-06-06 18:43:00,
2013-06-06 14:52:00,88.0,61.0,28.70,SW,235,1.0,3.0,40,0.00,,,0.00,,2013-06-06 18:52:00,
2013-06-06 15:02:00,89.0,61.0,28.70,SSW,203,0.0,3.0,39,0.00,,,0.00,,2013-06-06 19:02:00,
2013-06-06 15:23:00,91.0,61.0,28.70,SSW,200,0.0,3.0,37,0.00,,,0.00,,2013-06-06 19:23:00,
2013-06-06 15:33:00,93.0,62.0,28.69,South,182,0.0,1.0,36,0.00,,,0.00,,2013-06-06 19:33:00,
2013-06-06 15:42:00,93.0,62.0,28.69,South,182,0.0,1.0,36,0.00,,,0.00,,2013-06-06 19:42:00,
2013-06-06 15:52:00,96.0,60.0,28.69,West,277,0.0,3.0,31,0.00,,,0.00,,2013-06-06 19:52:00,
2013-06-06 16:02:00,94.0,60.0,28.69,SW,218,1.0,4.0,32,0.00,,,0.00,,2013-06-06 20:02:00,
2013-06-06 16:22:00,95.0,60.0,28.68,NE,53,0.0,4.0,32,0.00,,,0.00,,2013-06-06 20:22:00,
2013-06-06 16:32:00,96.0,59.0,28.68,NNE,24,1.0,4.0,30,0.00,,,0.00,,2013-06-06 20:32:00,
2013-06-06 16:42:00,96.0,59.0,28.68,NNE,24,1.0,4.0,30,0.00,,,0.00,,2013-06-06 20:42:00,
2013-06-06 16:52:00,97.0,58.0,28.67,SW,226,1.0,4.0,28,0.00,,,0.00,,2013-06-06 20:52:00,
2013-06-06 17:02:00,98.0,58.0,28.67,South,177,0.0,3.0,27,0.00,,,0.00,,2013-06-06 21:02:00,
2013-06-06 17:22:00,99.0,59.0,28.67,SSW,208,0.0,3.0,27,0.00,,,0.00,,2013-06-06 21:22:00,
2013-06-06 17:33:00,99.0,61.0,28.66,SW,227,1.0,3.0,29,0.00,,,0.00,,2013-06-06 21:33:00,
2013-06-06 17:43:00,99.0,61.0,28.66,SW,227,1.0,3.0,29,0.00,,,0.00,,2013-06-06 21:43:00,
2013-06-06 17:53:00,99.0,60.0,28.66,WNW,295,0.0,3.0,28,0.00,,,0.00,,2013-06-06 21:53:00,
2013-06-06 18:02:00,100.0,60.0,28.66,SW,231,1.0,5.0,27,0.00,,,0.00,,2013-06-06 22:02:00,
2013-06-06 18:22:00,101.0,63.0,28.65,North,360,0.0,3.0,29,0.00,,,0.00,,2013-06-06 22:22:00,
2013-06-06 18:33:00,102.0,61.0,28.65,SSW,192,0.0,3.0,26,0.00,,,0.00,,2013-06-06 22:33:00,
2013-06-06 18:43:00,102.0,61.0,28.65,SSW,192,0.0,3.0,26,0.00,,,0.00,,2013-06-06 22:43:00,
2013-06-06 18:52:00,102.0,61.0,28.64,East,91,0.0,4.0,26,0.00,,,0.00,,2013-06-06 22:52:00,
2013-06-06 19:02:00,102.0,61.0,28.64,ENE,76,0.0,3.0,26,0.00,,,0.00,,2013-06-06 23:02:00,
2013-06-06 19:22:00,100.0,60.0,28.63,ENE,71,0.0,5.0,27,0.00,,,0.00,,2013-06-06 23:22:00,
2013-06-06 19:33:00,101.0,60.0,28.63,SW,215,1.0,3.0,26,0.00,,,0.00,,2013-06-06 23:33:00,
2013-06-06 19:42:00,101.0,60.0,28.63,SW,215,1.0,3.0,26,0.00,,,0.00,,2013-06-06 23:42:00,
2013-06-06 19:52:00,100.0,59.0,28.63,SW,229,2.0,4.0,26,0.00,,,0.00,,2013-06-06 23:52:00,
2013-06-06 20:02:00,99.0,59.0,28.62,SW,229,2.0,4.0,27,0.00,,,0.00,,2013-06-07 00:02:00,
2013-06-06 20:12:00,99.0,59.0,28.62,SW,229,2.0,4.0,27,0.00,,,0.00,,2013-06-07 00:12:00,
2013-06-06 20:22:00,98.0,58.0,28.62,SSW,195,1.0,3.0,27,0.00,,,0.00,,2013-06-07 00:22:00,
2013-06-06 20:32:00,98.0,54.0,28.62,South,188,0.0,3.0,23,0.00,,,0.00,,2013-06-07 00:32:00,
2013-06-06 20:42:00,98.0,54.0,28.62,South,188,0.0,3.0,23,0.00,,,0.00,,2013-06-07 00:42:00,
2013-06-06 20:52:00,98.0,53.0,28.61,South,187,1.0,3.0,22,0.00,,,0.00,,2013-06-07 00:52:00,
2013-06-06 21:02:00,98.0,50.0,28.61,South,180,1.0,3.0,20,0.00,,,0.00,,2013-06-07 01:02:00,
2013-06-06 21:12:00,98.0,50.0,28.61,South,180,1.0,3.0,20,0.00,,,0.00,,2013-06-07 01:12:00,
2013-06-06 21:22:00,97.0,51.0,28.61,SW,222,0.0,2.0,21,0.00,,,0.00,,2013-06-07 01:22:00,
2013-06-06 21:32:00,96.0,51.0,28.61,West,275,0.0,6.0,22,0.00,,,0.00,,2013-06-07 01:32:00,
2013-06-06 21:42:00,96.0,51.0,28.61,West,275,0.0,6.0,22,0.00,,,0.00,,2013-06-07 01:42:00,
2013-06-06 21:52:00,95.0,51.0,28.61,WNW,283,0.0,5.0,23,0.00,,,0.00,,2013-06-07 01:52:00,
2013-06-06 22:02:00,94.0,56.0,28.61,West,264,0.0,2.0,28,0.00,,,0.00,,2013-06-07 02:02:00,
2013-06-06 22:12:00,94.0,56.0,28.61,West,264,0.0,2.0,28,0.00,,,0.00,,2013-06-07 02:12:00,
2013-06-06 22:22:00,94.0,57.0,28.61,SW,236,0.0,3.0,29,0.00,,,0.00,,2013-06-07 02:22:00,
2013-06-06 22:32:00,93.0,57.0,28.61,WSW,258,0.0,3.0,30,0.00,,,0.00,,2013-06-07 02:32:00,
2013-06-06 22:42:00,93.0,57.0,28.61,WSW,258,0.0,3.0,30,0.00,,,0.00,,2013-06-07 02:42:00,
2013-06-06 22:52:00,92.0,56.0,28.62,NNW,330,0.0,3.0,30,0.00,,,0.00,,2013-06-07 02:52:00,
2013-06-06 23:02:00,91.0,53.0,28.62,NW,308,0.0,6.0,28,0.00,,,0.00,,2013-06-07 03:02:00,
2013-06-06 23:12:00,91.0,53.0,28.62,NW,308,0.0,6.0,28,0.00,,,0.00,,2013-06-07 03:12:00,
2013-06-06 23:22:00,90.0,51.0,28.62,WNW,296,0.0,5.0,27,0.00,,,0.00,,2013-06-07 03:22:00,
2013-06-06 23:32:00,89.0,51.0,28.63,NNW,337,0.0,3.0,27,0.00,,,0.00,,2013-06-07 03:32:00,
2013-06-06 23:43:00,89.0,51.0,28.63,NNW,337,0.0,3.0,27,0.00,,,0.00,,2013-06-07 03:43:00,
2013-06-06 23:53:00,88.0,51.0,28.63,NW,311,0.0,0.0,28,0.00,,,0.00,,2013-06-07 03:53:00,